Orlando, Florida
Traffic Map
Current Weather Conditions
Orlando, Florida
Few Clouds
Few Clouds
87°
Feels Like: 96°
Wind Chill: 87° Ceiling: Unl
Heat Index: 96° Visibility: 10mi
Dew Point: 75° Wind: 3mph
Humidity: 67% Direction: 190° (S)
Pressure: 30.1in Gusts: 0mph
Raw Report DataKORL 271453Z 19003KT 10SM FEW025 31/24 A3010 RMK AO2 SLP196 T03060239 50004
Traffic Incident Summary
Active as of:
Severity:
Category:
InformationThere was an issue retrieving the traffic information for this location. Please try a different location or try again shortly.
Advertisements
Track Severe Weather on mobile